sensor_id;sensor_type;location;lat;lon;timestamp;temperature;humidity
18252;DHT22;26917;52.328;20.878;2022-11-18T00:00:04;-0.90;99.90
18252;DHT22;26917;52.328;20.878;2022-11-18T00:02:33;-0.90;99.90
18252;DHT22;26917;52.328;20.878;2022-11-18T00:05:02;-0.90;99.90
18252;DHT22;26917;52.328;20.878;2022-11-18T00:07:31;-0.80;99.90
18252;DHT22;26917;52.328;20.878;2022-11-18T00:10:00;-0.90;99.90
18252;DHT22;26917;52.328;20.878;2022-11-18T00:12:28;-0.80;99.90
18252;DHT22;26917;52.328;20.878;2022-11-18T00:15:14;-0.80;99.90
18252;DHT22;26917;52.328;20.878;2022-11-18T00:17:42;-0.80;99.90
18252;DHT22;26917;52.328;20.878;2022-11-18T00:20:11;-0.80;99.90
18252;DHT22;26917;52.328;20.878;2022-11-18T00:22:40;-0.50;99.90
18252;DHT22;26917;52.328;20.878;2022-11-18T00:25:09;-0.80;99.90
18252;DHT22;26917;52.328;20.878;2022-11-18T00:27:37;-0.60;99.90
18252;DHT22;26917;52.328;20.878;2022-11-18T00:30:07;-0.90;99.90
18252;DHT22;26917;52.328;20.878;2022-11-18T00:32:35;-0.90;99.90
18252;DHT22;26917;52.328;20.878;2022-11-18T00:35:04;-0.90;99.90
18252;DHT22;26917;52.328;20.878;2022-11-18T00:37:33;-0.90;99.90
18252;DHT22;26917;52.328;20.878;2022-11-18T00:40:03;-0.90;99.90
18252;DHT22;26917;52.328;20.878;2022-11-18T00:45:52;-0.90;99.90
18252;DHT22;26917;52.328;20.878;2022-11-18T00:48:20;-0.80;99.90
18252;DHT22;26917;52.328;20.878;2022-11-18T00:55:09;-0.80;99.90
18252;DHT22;26917;52.328;20.878;2022-11-18T00:57:46;-0.80;99.90
18252;DHT22;26917;52.328;20.878;2022-11-18T01:00:15;-0.80;99.90
18252;DHT22;26917;52.328;20.878;2022-11-18T01:02:43;-0.80;99.90
18252;DHT22;26917;52.328;20.878;2022-11-18T01:05:12;-0.80;99.90
18252;DHT22;26917;52.328;20.878;2022-11-18T01:07:40;-0.80;99.90
18252;DHT22;26917;52.328;20.878;2022-11-18T01:10:10;-0.80;99.90
18252;DHT22;26917;52.328;20.878;2022-11-18T01:12:39;-0.70;99.90
18252;DHT22;26917;52.328;20.878;2022-11-18T01:15:24;-0.80;99.90
18252;DHT22;26917;52.328;20.878;2022-11-18T01:17:53;-0.80;99.90
18252;DHT22;26917;52.328;20.878;2022-11-18T01:20:21;-0.80;99.90
18252;DHT22;26917;52.328;20.878;2022-11-18T01:22:50;-0.80;99.90
18252;DHT22;26917;52.328;20.878;2022-11-18T01:25:20;-0.80;99.90
18252;DHT22;26917;52.328;20.878;2022-11-18T01:27:48;-0.30;99.90
18252;DHT22;26917;52.328;20.878;2022-11-18T01:30:17;-0.80;99.90
18252;DHT22;26917;52.328;20.878;2022-11-18T01:32:45;-0.60;99.90
18252;DHT22;26917;52.328;20.878;2022-11-18T01:35:14;-0.70;99.90
18252;DHT22;26917;52.328;20.878;2022-11-18T01:37:42;-0.80;99.90
18252;DHT22;26917;52.328;20.878;2022-11-18T01:40:11;-0.70;99.90
18252;DHT22;26917;52.328;20.878;2022-11-18T01:42:41;-0.70;99.90
18252;DHT22;26917;52.328;20.878;2022-11-18T01:45:24;-0.70;99.90
18252;DHT22;26917;52.328;20.878;2022-11-18T01:47:59;-0.30;99.90
18252;DHT22;26917;52.328;20.878;2022-11-18T01:50:30;-0.60;99.90
18252;DHT22;26917;52.328;20.878;2022-11-18T01:53:07;-0.70;99.90
18252;DHT22;26917;52.328;20.878;2022-11-18T01:55:39;-0.70;99.90
18252;DHT22;26917;52.328;20.878;2022-11-18T01:58:13;-0.70;99.90
18252;DHT22;26917;52.328;20.878;2022-11-18T02:00:43;-0.70;99.90
18252;DHT22;26917;52.328;20.878;2022-11-18T02:03:11;-0.70;99.90
18252;DHT22;26917;52.328;20.878;2022-11-18T02:05:41;-0.70;99.90
18252;DHT22;26917;52.328;20.878;2022-11-18T02:08:10;-0.70;99.90
18252;DHT22;26917;52.328;20.878;2022-11-18T02:10:39;-0.70;99.90
18252;DHT22;26917;52.328;20.878;2022-11-18T02:13:09;-0.70;99.90
18252;DHT22;26917;52.328;20.878;2022-11-18T02:15:46;-0.60;99.90
18252;DHT22;26917;52.328;20.878;2022-11-18T02:18:24;-0.80;99.90
18252;DHT22;26917;52.328;20.878;2022-11-18T02:20:57;-0.60;99.90
18252;DHT22;26917;52.328;20.878;2022-11-18T02:23:55;-0.70;99.90
18252;DHT22;26917;52.328;20.878;2022-11-18T02:29:54;-0.70;99.90
18252;DHT22;26917;52.328;20.878;2022-11-18T02:32:25;-0.80;99.90
18252;DHT22;26917;52.328;20.878;2022-11-18T02:35:02;-0.70;99.90
18252;DHT22;26917;52.328;20.878;2022-11-18T02:37:38;-0.60;99.90
18252;DHT22;26917;52.328;20.878;2022-11-18T02:40:13;-0.60;99.90
18252;DHT22;26917;52.328;20.878;2022-11-18T02:42:47;-0.50;99.90
18252;DHT22;26917;52.328;20.878;2022-11-18T02:45:20;-0.60;99.90
18252;DHT22;26917;52.328;20.878;2022-11-18T02:47:51;-0.70;99.90
18252;DHT22;26917;52.328;20.878;2022-11-18T02:50:22;-0.60;99.90
18252;DHT22;26917;52.328;20.878;2022-11-18T02:52:55;-0.70;99.90
18252;DHT22;26917;52.328;20.878;2022-11-18T02:55:26;-0.60;99.90
18252;DHT22;26917;52.328;20.878;2022-11-18T02:57:57;-0.70;99.90
18252;DHT22;26917;52.328;20.878;2022-11-18T03:00:28;-0.60;99.90
18252;DHT22;26917;52.328;20.878;2022-11-18T03:02:57;-0.80;99.90
18252;DHT22;26917;52.328;20.878;2022-11-18T03:05:39;-0.70;99.90
18252;DHT22;26917;52.328;20.878;2022-11-18T03:08:15;-0.70;99.90
18252;DHT22;26917;52.328;20.878;2022-11-18T03:10:50;-0.70;99.90
18252;DHT22;26917;52.328;20.878;2022-11-18T03:13:23;-0.70;99.90
18252;DHT22;26917;52.328;20.878;2022-11-18T03:16:14;-0.70;99.90
18252;DHT22;26917;52.328;20.878;2022-11-18T03:18:51;-0.80;99.90
18252;DHT22;26917;52.328;20.878;2022-11-18T03:21:23;-0.80;99.90
18252;DHT22;26917;52.328;20.878;2022-11-18T03:23:56;-0.80;99.90
18252;DHT22;26917;52.328;20.878;2022-11-18T03:26:30;-0.30;99.90
18252;DHT22;26917;52.328;20.878;2022-11-18T03:29:03;-1.00;99.90
18252;DHT22;26917;52.328;20.878;2022-11-18T03:31:46;-0.90;99.90
18252;DHT22;26917;52.328;20.878;2022-11-18T03:34:21;-1.00;99.90
18252;DHT22;26917;52.328;20.878;2022-11-18T03:36:58;-1.00;99.90
18252;DHT22;26917;52.328;20.878;2022-11-18T03:39:39;-1.00;99.90
18252;DHT22;26917;52.328;20.878;2022-11-18T03:42:11;-1.00;99.90
18252;DHT22;26917;52.328;20.878;2022-11-18T03:44:45;-1.00;99.90
18252;DHT22;26917;52.328;20.878;2022-11-18T03:47:27;-1.00;99.90
18252;DHT22;26917;52.328;20.878;2022-11-18T03:49:59;-0.60;99.90
18252;DHT22;26917;52.328;20.878;2022-11-18T03:52:33;-1.00;99.90
18252;DHT22;26917;52.328;20.878;2022-11-18T03:55:10;-0.60;99.90
18252;DHT22;26917;52.328;20.878;2022-11-18T03:57:45;-1.10;99.90
18252;DHT22;26917;52.328;20.878;2022-11-18T04:00:17;-1.00;99.90
18252;DHT22;26917;52.328;20.878;2022-11-18T04:02:49;-1.00;99.90
18252;DHT22;26917;52.328;20.878;2022-11-18T04:05:18;-1.10;99.90
18252;DHT22;26917;52.328;20.878;2022-11-18T04:08:02;-0.90;99.90
18252;DHT22;26917;52.328;20.878;2022-11-18T04:10:36;-1.10;99.90
18252;DHT22;26917;52.328;20.878;2022-11-18T04:13:08;-1.00;99.90
18252;DHT22;26917;52.328;20.878;2022-11-18T04:15:39;-0.70;99.90
18252;DHT22;26917;52.328;20.878;2022-11-18T04:18:10;-1.00;99.90
18252;DHT22;26917;52.328;20.878;2022-11-18T04:20:39;-1.00;99.90
18252;DHT22;26917;52.328;20.878;2022-11-18T04:23:08;-1.00;99.90
18252;DHT22;26917;52.328;20.878;2022-11-18T04:25:40;-1.00;99.90
18252;DHT22;26917;52.328;20.878;2022-11-18T04:28:09;-0.70;99.90
18252;DHT22;26917;52.328;20.878;2022-11-18T04:30:38;-0.90;99.90
18252;DHT22;26917;52.328;20.878;2022-11-18T04:33:07;-1.10;99.90
18252;DHT22;26917;52.328;20.878;2022-11-18T04:38:50;-1.10;99.90
18252;DHT22;26917;52.328;20.878;2022-11-18T04:41:18;-1.00;99.90
18252;DHT22;26917;52.328;20.878;2022-11-18T04:44:15;-1.00;99.90
18252;DHT22;26917;52.328;20.878;2022-11-18T04:46:47;-1.10;99.90
18252;DHT22;26917;52.328;20.878;2022-11-18T04:49:16;-1.10;99.90
18252;DHT22;26917;52.328;20.878;2022-11-18T04:51:45;-1.00;99.90
18252;DHT22;26917;52.328;20.878;2022-11-18T04:54:16;-1.10;99.90
18252;DHT22;26917;52.328;20.878;2022-11-18T04:56:46;-1.10;99.90
18252;DHT22;26917;52.328;20.878;2022-11-18T04:59:17;-1.10;99.90
18252;DHT22;26917;52.328;20.878;2022-11-18T05:01:47;-1.20;99.90
18252;DHT22;26917;52.328;20.878;2022-11-18T05:04:17;-1.10;99.90
18252;DHT22;26917;52.328;20.878;2022-11-18T05:06:47;-0.90;99.90
18252;DHT22;26917;52.328;20.878;2022-11-18T05:09:17;-1.20;99.90
18252;DHT22;26917;52.328;20.878;2022-11-18T05:11:47;-1.20;99.90
18252;DHT22;26917;52.328;20.878;2022-11-18T05:14:33;-1.20;99.90
18252;DHT22;26917;52.328;20.878;2022-11-18T05:17:04;-1.30;99.90
18252;DHT22;26917;52.328;20.878;2022-11-18T05:19:36;-1.20;99.90
18252;DHT22;26917;52.328;20.878;2022-11-18T05:22:06;-1.20;99.90
18252;DHT22;26917;52.328;20.878;2022-11-18T05:24:36;-1.20;99.90
18252;DHT22;26917;52.328;20.878;2022-11-18T05:27:05;-1.20;99.90
18252;DHT22;26917;52.328;20.878;2022-11-18T05:29:34;-1.20;99.90
18252;DHT22;26917;52.328;20.878;2022-11-18T05:32:04;-1.20;99.90
18252;DHT22;26917;52.328;20.878;2022-11-18T05:34:32;-1.20;99.90
18252;DHT22;26917;52.328;20.878;2022-11-18T05:37:01;-1.20;99.90
18252;DHT22;26917;52.328;20.878;2022-11-18T05:39:30;-1.10;99.90
18252;DHT22;26917;52.328;20.878;2022-11-18T05:42:15;-1.20;99.90
18252;DHT22;26917;52.328;20.878;2022-11-18T05:45:06;-1.20;99.90
18252;DHT22;26917;52.328;20.878;2022-11-18T05:47:34;-1.10;99.90
18252;DHT22;26917;52.328;20.878;2022-11-18T05:50:23;-1.20;99.90
18252;DHT22;26917;52.328;20.878;2022-11-18T05:52:51;-1.20;99.90
18252;DHT22;26917;52.328;20.878;2022-11-18T05:55:22;-1.10;99.90
18252;DHT22;26917;52.328;20.878;2022-11-18T05:57:53;-1.20;99.90
18252;DHT22;26917;52.328;20.878;2022-11-18T06:00:21;-1.10;99.90
18252;DHT22;26917;52.328;20.878;2022-11-18T06:02:52;-1.20;99.90
18252;DHT22;26917;52.328;20.878;2022-11-18T06:05:22;-1.10;99.90
18252;DHT22;26917;52.328;20.878;2022-11-18T06:07:53;-1.10;99.90
18252;DHT22;26917;52.328;20.878;2022-11-18T06:10:27;-0.90;99.90
18252;DHT22;26917;52.328;20.878;2022-11-18T06:13:01;-1.10;99.90
18252;DHT22;26917;52.328;20.878;2022-11-18T06:15:31;-0.60;99.90
18252;DHT22;26917;52.328;20.878;2022-11-18T06:18:03;-0.60;99.90
18252;DHT22;26917;52.328;20.878;2022-11-18T06:20:35;-1.10;99.90
18252;DHT22;26917;52.328;20.878;2022-11-18T06:23:05;-1.10;99.90
18252;DHT22;26917;52.328;20.878;2022-11-18T06:25:36;-1.00;99.90
18252;DHT22;26917;52.328;20.878;2022-11-18T06:28:22;-1.10;99.90
18252;DHT22;26917;52.328;20.878;2022-11-18T06:30:51;-1.10;99.90
18252;DHT22;26917;52.328;20.878;2022-11-18T06:33:20;-0.90;99.90
18252;DHT22;26917;52.328;20.878;2022-11-18T06:35:48;-1.00;99.90
18252;DHT22;26917;52.328;20.878;2022-11-18T06:38:17;-1.20;99.90
18252;DHT22;26917;52.328;20.878;2022-11-18T06:40:45;-1.20;99.90
18252;DHT22;26917;52.328;20.878;2022-11-18T06:43:14;-1.10;99.90
18252;DHT22;26917;52.328;20.878;2022-11-18T06:46:16;-1.10;99.90
18252;DHT22;26917;52.328;20.878;2022-11-18T06:49:02;-1.10;99.90
18252;DHT22;26917;52.328;20.878;2022-11-18T06:51:31;-1.10;99.90
18252;DHT22;26917;52.328;20.878;2022-11-18T06:53:59;-0.70;99.90
18252;DHT22;26917;52.328;20.878;2022-11-18T06:56:36;-1.10;99.90
18252;DHT22;26917;52.328;20.878;2022-11-18T06:59:05;-1.10;99.90
18252;DHT22;26917;52.328;20.878;2022-11-18T07:01:36;-1.10;99.90
18252;DHT22;26917;52.328;20.878;2022-11-18T07:04:32;-0.70;99.90
18252;DHT22;26917;52.328;20.878;2022-11-18T07:07:06;-1.10;99.90
18252;DHT22;26917;52.328;20.878;2022-11-18T07:09:34;-1.00;99.90
18252;DHT22;26917;52.328;20.878;2022-11-18T07:12:04;-1.00;99.90
18252;DHT22;26917;52.328;20.878;2022-11-18T07:14:32;-1.00;99.90
18252;DHT22;26917;52.328;20.878;2022-11-18T07:17:17;-1.00;99.90
18252;DHT22;26917;52.328;20.878;2022-11-18T07:19:46;-1.00;99.90
18252;DHT22;26917;52.328;20.878;2022-11-18T07:22:18;-1.00;99.90
18252;DHT22;26917;52.328;20.878;2022-11-18T07:24:46;-1.00;99.90
18252;DHT22;26917;52.328;20.878;2022-11-18T07:27:15;-0.90;99.90
18252;DHT22;26917;52.328;20.878;2022-11-18T07:29:43;-0.70;99.90
18252;DHT22;26917;52.328;20.878;2022-11-18T07:32:12;-0.30;99.90
18252;DHT22;26917;52.328;20.878;2022-11-18T07:34:46;-0.70;99.90
18252;DHT22;26917;52.328;20.878;2022-11-18T07:37:14;-0.70;99.90
18252;DHT22;26917;52.328;20.878;2022-11-18T07:39:43;-0.90;99.90
18252;DHT22;26917;52.328;20.878;2022-11-18T07:42:11;-0.60;99.90
18252;DHT22;26917;52.328;20.878;2022-11-18T07:44:40;-0.60;99.90
18252;DHT22;26917;52.328;20.878;2022-11-18T07:47:09;-0.10;99.90
18252;DHT22;26917;52.328;20.878;2022-11-18T07:49:37;-0.60;99.90
18252;DHT22;26917;52.328;20.878;2022-11-18T07:52:07;-0.60;99.90
18252;DHT22;26917;52.328;20.878;2022-11-18T07:54:38;-0.60;99.90
18252;DHT22;26917;52.328;20.878;2022-11-18T07:57:07;-0.60;99.90
18252;DHT22;26917;52.328;20.878;2022-11-18T07:59:36;-0.70;99.90
18252;DHT22;26917;52.328;20.878;2022-11-18T08:02:05;-0.60;99.90
18252;DHT22;26917;52.328;20.878;2022-11-18T08:04:37;-0.60;99.90
18252;DHT22;26917;52.328;20.878;2022-11-18T08:07:12;-0.40;99.90
18252;DHT22;26917;52.328;20.878;2022-11-18T08:09:49;0.20;99.90
18252;DHT22;26917;52.328;20.878;2022-11-18T08:12:18;-0.50;99.90
18252;DHT22;26917;52.328;20.878;2022-11-18T08:14:51;-0.70;99.90
18252;DHT22;26917;52.328;20.878;2022-11-18T08:17:19;-0.60;99.90
18252;DHT22;26917;52.328;20.878;2022-11-18T08:19:48;-0.60;99.90
18252;DHT22;26917;52.328;20.878;2022-11-18T08:22:18;-0.70;99.90
18252;DHT22;26917;52.328;20.878;2022-11-18T08:24:50;-0.70;99.90
18252;DHT22;26917;52.328;20.878;2022-11-18T08:27:19;-0.60;99.90
18252;DHT22;26917;52.328;20.878;2022-11-18T08:29:47;-0.70;99.90
18252;DHT22;26917;52.328;20.878;2022-11-18T08:32:15;-0.80;99.90
18252;DHT22;26917;52.328;20.878;2022-11-18T08:34:44;-0.80;99.90
18252;DHT22;26917;52.328;20.878;2022-11-18T08:37:12;-0.70;99.90
18252;DHT22;26917;52.328;20.878;2022-11-18T08:39:45;-0.80;99.90
18252;DHT22;26917;52.328;20.878;2022-11-18T08:42:13;-0.70;99.90
18252;DHT22;26917;52.328;20.878;2022-11-18T08:44:42;-0.70;99.90
18252;DHT22;26917;52.328;20.878;2022-11-18T08:47:10;-0.70;99.90
18252;DHT22;26917;52.328;20.878;2022-11-18T08:49:38;-0.80;99.90
18252;DHT22;26917;52.328;20.878;2022-11-18T08:52:11;-0.60;99.90
18252;DHT22;26917;52.328;20.878;2022-11-18T08:54:47;-0.60;99.90
18252;DHT22;26917;52.328;20.878;2022-11-18T08:57:20;-0.60;99.90
18252;DHT22;26917;52.328;20.878;2022-11-18T08:59:52;-0.70;99.90
18252;DHT22;26917;52.328;20.878;2022-11-18T09:02:22;-0.60;99.90
18252;DHT22;26917;52.328;20.878;2022-11-18T09:04:51;-0.50;99.90
18252;DHT22;26917;52.328;20.878;2022-11-18T09:07:21;-0.50;99.90
18252;DHT22;26917;52.328;20.878;2022-11-18T09:09:58;-0.40;99.90
18252;DHT22;26917;52.328;20.878;2022-11-18T09:12:28;-0.30;99.90
18252;DHT22;26917;52.328;20.878;2022-11-18T09:14:57;-0.20;99.90
18252;DHT22;26917;52.328;20.878;2022-11-18T09:17:40;-0.10;99.90
18252;DHT22;26917;52.328;20.878;2022-11-18T09:20:09;0.00;99.90
18252;DHT22;26917;52.328;20.878;2022-11-18T09:22:37;0.10;99.90
18252;DHT22;26917;52.328;20.878;2022-11-18T09:25:07;0.20;99.90
18252;DHT22;26917;52.328;20.878;2022-11-18T09:27:37;0.30;99.90
18252;DHT22;26917;52.328;20.878;2022-11-18T09:30:07;0.60;99.90
18252;DHT22;26917;52.328;20.878;2022-11-18T09:32:38;0.20;99.90
18252;DHT22;26917;52.328;20.878;2022-11-18T09:35:07;0.60;99.90
18252;DHT22;26917;52.328;20.878;2022-11-18T09:37:36;0.10;99.90
18252;DHT22;26917;52.328;20.878;2022-11-18T09:40:11;0.00;99.90
18252;DHT22;26917;52.328;20.878;2022-11-18T09:42:58;0.10;99.90
18252;DHT22;26917;52.328;20.878;2022-11-18T09:45:42;0.00;99.90
18252;DHT22;26917;52.328;20.878;2022-11-18T09:48:15;0.10;99.90
18252;DHT22;26917;52.328;20.878;2022-11-18T09:50:46;0.00;99.90
18252;DHT22;26917;52.328;20.878;2022-11-18T09:53:25;0.00;99.90
18252;DHT22;26917;52.328;20.878;2022-11-18T09:55:56;0.00;99.90
18252;DHT22;26917;52.328;20.878;2022-11-18T09:58:31;0.30;99.90
18252;DHT22;26917;52.328;20.878;2022-11-18T10:01:02;0.00;99.90
18252;DHT22;26917;52.328;20.878;2022-11-18T10:03:32;0.20;99.90
18252;DHT22;26917;52.328;20.878;2022-11-18T10:06:04;0.60;99.90
18252;DHT22;26917;52.328;20.878;2022-11-18T10:09:01;0.10;99.90
18252;DHT22;26917;52.328;20.878;2022-11-18T10:11:36;0.20;99.90
18252;DHT22;26917;52.328;20.878;2022-11-18T10:14:23;0.20;99.90
18252;DHT22;26917;52.328;20.878;2022-11-18T10:17:02;0.20;99.90
18252;DHT22;26917;52.328;20.878;2022-11-18T10:19:38;0.30;99.90
18252;DHT22;26917;52.328;20.878;2022-11-18T10:22:17;0.50;99.90
18252;DHT22;26917;52.328;20.878;2022-11-18T10:24:52;0.40;99.90
18252;DHT22;26917;52.328;20.878;2022-11-18T10:27:26;0.40;99.90
18252;DHT22;26917;52.328;20.878;2022-11-18T10:30:06;0.40;99.90
18252;DHT22;26917;52.328;20.878;2022-11-18T10:32:53;0.30;99.90
18252;DHT22;26917;52.328;20.878;2022-11-18T10:35:25;0.30;99.90
18252;DHT22;26917;52.328;20.878;2022-11-18T10:38:00;-0.60;99.90
18252;DHT22;26917;52.328;20.878;2022-11-18T10:40:39;0.20;99.90
18252;DHT22;26917;52.328;20.878;2022-11-18T10:43:11;0.10;99.90
18252;DHT22;26917;52.328;20.878;2022-11-18T10:45:43;0.10;99.90
18252;DHT22;26917;52.328;20.878;2022-11-18T10:48:16;0.10;99.90
18252;DHT22;26917;52.328;20.878;2022-11-18T10:50:46;0.10;99.90
18252;DHT22;26917;52.328;20.878;2022-11-18T10:53:29;0.30;99.90
18252;DHT22;26917;52.328;20.878;2022-11-18T10:55:59;0.40;99.90
18252;DHT22;26917;52.328;20.878;2022-11-18T10:58:41;0.20;99.90
18252;DHT22;26917;52.328;20.878;2022-11-18T11:01:22;0.10;99.90
18252;DHT22;26917;52.328;20.878;2022-11-18T11:04:01;0.00;99.90
18252;DHT22;26917;52.328;20.878;2022-11-18T11:06:38;0.10;99.90
18252;DHT22;26917;52.328;20.878;2022-11-18T11:09:25;0.10;99.90
18252;DHT22;26917;52.328;20.878;2022-11-18T11:11:57;0.10;99.90
18252;DHT22;26917;52.328;20.878;2022-11-18T11:14:52;0.10;99.80
18252;DHT22;26917;52.328;20.878;2022-11-18T11:20:40;0.00;99.50
18252;DHT22;26917;52.328;20.878;2022-11-18T11:23:12;0.10;99.80
18252;DHT22;26917;52.328;20.878;2022-11-18T11:25:53;0.10;99.90
18252;DHT22;26917;52.328;20.878;2022-11-18T11:28:49;0.10;99.90
18252;DHT22;26917;52.328;20.878;2022-11-18T11:31:28;0.20;99.90
18252;DHT22;26917;52.328;20.878;2022-11-18T11:34:02;0.20;99.90
18252;DHT22;26917;52.328;20.878;2022-11-18T11:36:43;0.30;99.90
18252;DHT22;26917;52.328;20.878;2022-11-18T11:39:46;0.50;99.90
18252;DHT22;26917;52.328;20.878;2022-11-18T11:42:34;0.40;99.90
18252;DHT22;26917;52.328;20.878;2022-11-18T11:45:17;0.40;99.90
18252;DHT22;26917;52.328;20.878;2022-11-18T11:48:33;0.40;99.90
18252;DHT22;26917;52.328;20.878;2022-11-18T11:51:15;0.40;99.90
18252;DHT22;26917;52.328;20.878;2022-11-18T11:54:17;0.40;99.90
18252;DHT22;26917;52.328;20.878;2022-11-18T11:56:53;0.90;99.90
18252;DHT22;26917;52.328;20.878;2022-11-18T11:59:31;0.40;99.90
18252;DHT22;26917;52.328;20.878;2022-11-18T12:02:21;0.50;99.90
18252;DHT22;26917;52.328;20.878;2022-11-18T12:04:59;0.30;99.90
18252;DHT22;26917;52.328;20.878;2022-11-18T12:07:37;0.20;99.90
18252;DHT22;26917;52.328;20.878;2022-11-18T12:10:28;0.20;99.90
18252;DHT22;26917;52.328;20.878;2022-11-18T12:13:19;0.30;99.90
18252;DHT22;26917;52.328;20.878;2022-11-18T12:15:58;0.40;99.90
18252;DHT22;26917;52.328;20.878;2022-11-18T12:18:37;0.20;99.90
18252;DHT22;26917;52.328;20.878;2022-11-18T12:21:08;0.40;99.90
18252;DHT22;26917;52.328;20.878;2022-11-18T12:24:28;0.40;99.90
18252;DHT22;26917;52.328;20.878;2022-11-18T12:30:26;0.40;99.90
18252;DHT22;26917;52.328;20.878;2022-11-18T12:36:10;0.40;99.90
18252;DHT22;26917;52.328;20.878;2022-11-18T12:38:52;0.40;99.90
18252;DHT22;26917;52.328;20.878;2022-11-18T12:41:51;0.40;99.90
18252;DHT22;26917;52.328;20.878;2022-11-18T12:44:42;0.40;99.90
18252;DHT22;26917;52.328;20.878;2022-11-18T12:47:13;0.50;99.90
18252;DHT22;26917;52.328;20.878;2022-11-18T12:50:15;0.70;99.90
18252;DHT22;26917;52.328;20.878;2022-11-18T12:53:34;-0.20;99.90
18252;DHT22;26917;52.328;20.878;2022-11-18T12:56:23;0.40;99.90
18252;DHT22;26917;52.328;20.878;2022-11-18T12:58:58;0.40;99.90
18252;DHT22;26917;52.328;20.878;2022-11-18T13:01:29;0.40;99.90
18252;DHT22;26917;52.328;20.878;2022-11-18T13:04:08;0.30;99.90
18252;DHT22;26917;52.328;20.878;2022-11-18T13:06:38;0.10;99.90
18252;DHT22;26917;52.328;20.878;2022-11-18T13:09:14;0.10;99.90
18252;DHT22;26917;52.328;20.878;2022-11-18T13:11:46;-0.10;99.90
18252;DHT22;26917;52.328;20.878;2022-11-18T13:14:22;0.00;99.90
18252;DHT22;26917;52.328;20.878;2022-11-18T13:17:29;0.00;99.90
18252;DHT22;26917;52.328;20.878;2022-11-18T13:20:23;-0.10;99.90
18252;DHT22;26917;52.328;20.878;2022-11-18T13:22:59;-0.10;99.90
18252;DHT22;26917;52.328;20.878;2022-11-18T13:26:10;-0.10;99.90
18252;DHT22;26917;52.328;20.878;2022-11-18T13:28:57;-0.20;99.90
18252;DHT22;26917;52.328;20.878;2022-11-18T13:31:33;-0.20;99.90
18252;DHT22;26917;52.328;20.878;2022-11-18T13:34:17;-0.10;99.90
18252;DHT22;26917;52.328;20.878;2022-11-18T13:37:11;-0.20;99.90
18252;DHT22;26917;52.328;20.878;2022-11-18T13:39:50;-0.30;99.90
18252;DHT22;26917;52.328;20.878;2022-11-18T13:42:35;-0.20;99.90
18252;DHT22;26917;52.328;20.878;2022-11-18T13:45:14;-0.20;99.90
18252;DHT22;26917;52.328;20.878;2022-11-18T13:47:45;-0.30;99.90
18252;DHT22;26917;52.328;20.878;2022-11-18T13:50:18;-0.20;99.90
18252;DHT22;26917;52.328;20.878;2022-11-18T13:52:59;-0.10;99.90
18252;DHT22;26917;52.328;20.878;2022-11-18T13:55:35;-0.20;99.90
18252;DHT22;26917;52.328;20.878;2022-11-18T13:58:25;-0.20;99.90
18252;DHT22;26917;52.328;20.878;2022-11-18T14:01:14;-0.30;99.90
18252;DHT22;26917;52.328;20.878;2022-11-18T14:03:58;-0.20;99.90
18252;DHT22;26917;52.328;20.878;2022-11-18T14:06:31;-0.30;99.90
18252;DHT22;26917;52.328;20.878;2022-11-18T14:09:22;-0.20;99.90
18252;DHT22;26917;52.328;20.878;2022-11-18T14:12:00;-0.30;99.90
18252;DHT22;26917;52.328;20.878;2022-11-18T14:15:18;-0.30;99.90
18252;DHT22;26917;52.328;20.878;2022-11-18T14:18:03;-0.30;99.90
18252;DHT22;26917;52.328;20.878;2022-11-18T14:20:50;-0.40;99.90
18252;DHT22;26917;52.328;20.878;2022-11-18T14:23:25;-0.40;99.90
18252;DHT22;26917;52.328;20.878;2022-11-18T14:26:14;-0.20;99.90
18252;DHT22;26917;52.328;20.878;2022-11-18T14:28:57;-0.40;99.90
18252;DHT22;26917;52.328;20.878;2022-11-18T14:31:30;-0.50;99.90
18252;DHT22;26917;52.328;20.878;2022-11-18T14:34:30;-0.50;99.90
18252;DHT22;26917;52.328;20.878;2022-11-18T14:36:59;-0.70;99.90
18252;DHT22;26917;52.328;20.878;2022-11-18T14:39:31;-0.20;99.90
18252;DHT22;26917;52.328;20.878;2022-11-18T14:42:12;-0.10;99.90
18252;DHT22;26917;52.328;20.878;2022-11-18T14:44:47;-0.60;99.90
18252;DHT22;26917;52.328;20.878;2022-11-18T14:47:24;-0.70;99.90
18252;DHT22;26917;52.328;20.878;2022-11-18T14:50:16;-0.50;99.90
18252;DHT22;26917;52.328;20.878;2022-11-18T14:52:44;-0.60;99.90
18252;DHT22;26917;52.328;20.878;2022-11-18T14:55:13;-0.70;99.90
18252;DHT22;26917;52.328;20.878;2022-11-18T14:57:59;-0.70;99.90
18252;DHT22;26917;52.328;20.878;2022-11-18T15:00:30;-0.70;99.90
18252;DHT22;26917;52.328;20.878;2022-11-18T15:02:58;-0.70;99.90
18252;DHT22;26917;52.328;20.878;2022-11-18T15:05:44;-0.60;99.90
18252;DHT22;26917;52.328;20.878;2022-11-18T15:08:15;-0.50;99.90
18252;DHT22;26917;52.328;20.878;2022-11-18T15:10:44;-0.80;99.90
18252;DHT22;26917;52.328;20.878;2022-11-18T15:13:16;-0.90;99.90
18252;DHT22;26917;52.328;20.878;2022-11-18T15:15:45;-1.00;99.90
18252;DHT22;26917;52.328;20.878;2022-11-18T15:18:16;-1.00;99.90
18252;DHT22;26917;52.328;20.878;2022-11-18T15:20:45;-1.10;99.90
18252;DHT22;26917;52.328;20.878;2022-11-18T15:23:24;-1.20;99.90
18252;DHT22;26917;52.328;20.878;2022-11-18T15:25:56;-1.10;99.90
18252;DHT22;26917;52.328;20.878;2022-11-18T15:28:26;-1.10;99.90
18252;DHT22;26917;52.328;20.878;2022-11-18T15:31:02;-1.10;99.90
18252;DHT22;26917;52.328;20.878;2022-11-18T15:33:36;-1.00;99.90
18252;DHT22;26917;52.328;20.878;2022-11-18T15:36:10;-1.50;99.90
18252;DHT22;26917;52.328;20.878;2022-11-18T15:39:03;-1.40;99.90
18252;DHT22;26917;52.328;20.878;2022-11-18T15:41:42;-1.40;99.90
18252;DHT22;26917;52.328;20.878;2022-11-18T15:44:14;-1.40;99.90
18252;DHT22;26917;52.328;20.878;2022-11-18T15:47:06;-1.30;99.90
18252;DHT22;26917;52.328;20.878;2022-11-18T15:49:35;-0.80;99.90
18252;DHT22;26917;52.328;20.878;2022-11-18T15:52:04;-1.40;99.90
18252;DHT22;26917;52.328;20.878;2022-11-18T15:54:41;-1.40;99.90
18252;DHT22;26917;52.328;20.878;2022-11-18T15:57:10;-1.40;99.90
18252;DHT22;26917;52.328;20.878;2022-11-18T15:59:42;-1.20;99.90
18252;DHT22;26917;52.328;20.878;2022-11-18T16:02:15;-1.40;99.90
18252;DHT22;26917;52.328;20.878;2022-11-18T16:04:44;-1.40;99.90
18252;DHT22;26917;52.328;20.878;2022-11-18T16:07:13;-1.50;99.90
18252;DHT22;26917;52.328;20.878;2022-11-18T16:09:41;-1.40;99.90
18252;DHT22;26917;52.328;20.878;2022-11-18T16:12:27;-1.40;99.90
18252;DHT22;26917;52.328;20.878;2022-11-18T16:15:16;-1.50;99.90
18252;DHT22;26917;52.328;20.878;2022-11-18T16:18:35;-1.60;99.90
18252;DHT22;26917;52.328;20.878;2022-11-18T16:21:07;-1.60;99.90
18252;DHT22;26917;52.328;20.878;2022-11-18T16:23:37;-1.60;99.90
18252;DHT22;26917;52.328;20.878;2022-11-18T16:26:05;-1.70;99.90
18252;DHT22;26917;52.328;20.878;2022-11-18T16:28:37;-1.70;99.90
18252;DHT22;26917;52.328;20.878;2022-11-18T16:31:08;-1.70;99.90
18252;DHT22;26917;52.328;20.878;2022-11-18T16:33:55;-1.70;99.90